createdAt,value
2019-03-03T00:00:35.653Z,52.27
2019-03-03T00:04:48.548Z,45.33
2019-03-03T00:09:01.333Z,53.60
2019-03-03T00:13:13.815Z,44.57
2019-03-03T00:17:26.684Z,45.60
2019-03-03T00:21:39.165Z,48.87
2019-03-03T00:25:51.487Z,44.53
2019-03-03T00:30:04.540Z,44.40
2019-03-03T00:34:16.927Z,38.63
2019-03-03T00:38:45.551Z,43.87
2019-03-03T00:43:27.560Z,53.53
2019-03-03T00:48:08.301Z,54.43
2019-03-03T00:52:39.557Z,42.33
2019-03-03T00:57:11.021Z,43.87
2019-03-03T01:01:42.174Z,44.53
2019-03-03T01:06:01.900Z,36.73
2019-03-03T01:10:24.659Z,44.23
2019-03-03T01:14:55.979Z,40.80
2019-03-03T01:19:15.192Z,42.57
2019-03-03T01:23:44.875Z,47.73
2019-03-03T01:27:57.404Z,49.87
2019-03-03T01:32:10.355Z,40.83
2019-03-03T01:36:22.846Z,34.33
2019-03-03T01:40:35.268Z,42.60
2019-03-03T01:44:47.559Z,51.77
2019-03-03T01:49:00.363Z,40.60
2019-03-03T01:53:12.821Z,44.57
2019-03-03T01:57:25.438Z,41.87
2019-03-03T02:01:37.931Z,45.33
2019-03-03T02:05:50.744Z,55.73
2019-03-03T02:10:03.320Z,48.43
2019-03-03T02:14:15.781Z,40.27
2019-03-03T02:18:28.500Z,41.00
2019-03-03T02:22:40.848Z,46.17
2019-03-03T02:26:53.260Z,42.57
2019-03-03T02:31:06.472Z,42.87
2019-03-03T02:35:18.886Z,45.63
2019-03-03T02:39:31.802Z,51.30
2019-03-03T02:43:44.456Z,46.50
2019-03-03T02:47:57.800Z,39.87
2019-03-03T02:52:10.112Z,41.60
2019-03-03T02:56:22.524Z,40.90
2019-03-03T03:00:37.409Z,53.20
2019-03-03T03:04:49.909Z,40.93
2019-03-03T03:09:33.767Z,49.70
2019-03-03T03:14:04.921Z,44.83
2019-03-03T03:18:45.495Z,39.63
2019-03-03T03:23:16.658Z,45.70
2019-03-03T03:27:45.390Z,44.63
2019-03-03T03:32:07.013Z,39.13
2019-03-03T03:36:41.719Z,40.97
2019-03-03T03:41:10.000Z,42.17
2019-03-03T03:45:37.475Z,47.47
2019-03-03T03:50:18.050Z,44.87
2019-03-03T03:54:44.802Z,51.13
2019-03-03T03:59:16.161Z,47.77
2019-03-03T04:03:40.692Z,37.07
2019-03-03T04:08:30.450Z,44.60
2019-03-03T04:12:53.762Z,54.30
2019-03-03T04:17:15.084Z,38.03
2019-03-03T04:21:45.520Z,38.90
2019-03-03T04:26:16.740Z,38.13
2019-03-03T04:30:39.049Z,41.70
2019-03-03T04:35:10.145Z,44.40
2019-03-03T04:39:41.357Z,52.17
2019-03-03T04:44:08.698Z,50.27
2019-03-03T04:48:30.844Z,46.20
2019-03-03T04:53:02.167Z,44.00
2019-03-03T04:57:46.118Z,47.90
2019-03-03T05:02:17.376Z,52.83
2019-03-03T05:06:51.400Z,48.03
2019-03-03T05:11:15.839Z,43.03
2019-03-03T05:15:46.132Z,45.60
2019-03-03T05:20:01.552Z,44.13
2019-03-03T05:24:14.151Z,43.20
2019-03-03T05:28:26.664Z,44.10
2019-03-03T05:32:38.979Z,42.63
2019-03-03T05:36:51.763Z,48.77
2019-03-03T05:41:04.275Z,47.10
2019-03-03T05:45:16.624Z,49.07
2019-03-03T05:49:29.424Z,45.93
2019-03-03T05:53:41.883Z,46.57
2019-03-03T05:57:54.897Z,40.47
2019-03-03T06:02:07.424Z,50.40
2019-03-03T06:06:19.732Z,52.73
2019-03-03T06:10:32.110Z,47.00
2019-03-03T06:14:44.948Z,41.33
2019-03-03T06:18:57.501Z,41.13
2019-03-03T06:23:09.904Z,52.43
2019-03-03T06:27:22.806Z,53.97
2019-03-03T06:31:35.356Z,47.77
2019-03-03T06:35:47.666Z,47.17
2019-03-03T06:40:00.655Z,53.70
2019-03-03T06:44:13.222Z,49.37
2019-03-03T06:48:25.636Z,42.43
2019-03-03T06:52:38.526Z,49.57
2019-03-03T06:56:50.974Z,47.73
2019-03-03T07:01:03.384Z,52.00
2019-03-03T07:05:16.526Z,49.67
2019-03-03T07:09:29.040Z,47.53
2019-03-03T07:13:42.272Z,58.17
2019-03-03T07:17:55.107Z,46.83
2019-03-03T07:22:07.614Z,45.37
2019-03-03T07:26:19.930Z,57.30
2019-03-03T07:30:32.728Z,47.40
2019-03-03T07:34:47.056Z,49.23
2019-03-03T07:38:59.128Z,48.87
2019-03-03T07:43:11.784Z,49.73
2019-03-03T07:47:24.423Z,46.47
2019-03-03T07:51:36.785Z,50.20
2019-03-03T07:55:49.090Z,45.00
2019-03-03T08:00:02.084Z,52.23
2019-03-03T08:04:14.644Z,47.67
2019-03-03T08:08:26.956Z,50.93
2019-03-03T08:12:39.362Z,54.60
2019-03-03T08:16:52.220Z,48.90
2019-03-03T08:21:04.753Z,48.77
2019-03-03T08:25:17.142Z,46.23
2019-03-03T08:29:30.015Z,36.33
2019-03-03T08:33:42.468Z,43.73
2019-03-03T08:37:54.773Z,48.07
2019-03-03T08:42:25.726Z,42.60
2019-03-03T08:46:55.855Z,40.57
2019-03-03T08:51:30.185Z,49.40
2019-03-03T08:56:19.775Z,45.87
2019-03-03T09:00:53.590Z,44.23
2019-03-03T09:05:30.887Z,35.90
2019-03-03T09:09:53.680Z,45.63
2019-03-03T09:14:34.529Z,48.63
2019-03-03T09:19:11.626Z,47.87
2019-03-03T09:23:52.301Z,37.97
2019-03-03T09:28:27.487Z,43.93
2019-03-03T09:32:53.076Z,34.30
2019-03-03T09:37:43.996Z,42.93
2019-03-03T09:42:13.918Z,46.00
2019-03-03T09:46:44.153Z,36.47
2019-03-03T09:51:08.140Z,46.00
2019-03-03T09:55:31.343Z,43.87
2019-03-03T09:59:54.735Z,45.00
2019-03-03T10:04:35.600Z,41.53
2019-03-03T10:09:18.799Z,39.70
2019-03-03T10:13:44.260Z,40.23
2019-03-03T10:18:30.734Z,45.80
2019-03-03T10:23:03.568Z,51.73
2019-03-03T10:27:33.350Z,43.57
2019-03-03T10:31:59.692Z,47.90
2019-03-03T10:36:31.051Z,52.37
2019-03-03T10:41:20.435Z,52.67
2019-03-03T10:45:56.539Z,51.87
2019-03-03T10:50:26.879Z,54.93
2019-03-03T10:54:58.199Z,53.93
2019-03-03T10:59:29.148Z,52.20
2019-03-03T11:04:03.583Z,56.60
2019-03-03T11:08:43.848Z,56.97
2019-03-03T11:13:24.331Z,59.60
2019-03-03T11:17:55.682Z,62.27
2019-03-03T11:22:35.848Z,62.63
2019-03-03T11:27:04.678Z,44.83
2019-03-03T11:31:33.699Z,53.17
2019-03-03T11:36:07.981Z,54.27
2019-03-03T11:40:36.312Z,50.50
2019-03-03T11:45:17.191Z,45.30
2019-03-03T11:49:38.373Z,51.47
2019-03-03T11:54:04.448Z,44.83
2019-03-03T11:58:45.085Z,51.23
2019-03-03T12:03:12.478Z,49.20
2019-03-03T12:07:46.985Z,58.13
2019-03-03T12:12:09.067Z,54.60
2019-03-03T12:16:40.795Z,50.33
2019-03-03T12:21:10.619Z,42.60
2019-03-03T12:25:41.978Z,53.07
2019-03-03T12:30:05.557Z,53.80
2019-03-03T12:34:35.893Z,59.90
2019-03-03T12:39:16.568Z,54.03
2019-03-03T12:43:42.748Z,55.50
2019-03-03T12:48:17.176Z,50.10
2019-03-03T12:52:48.738Z,54.50
2019-03-03T12:57:10.988Z,57.83
2019-03-03T13:01:38.967Z,53.73
2019-03-03T13:06:23.900Z,60.97
2019-03-03T13:10:47.589Z,47.43
2019-03-03T13:15:17.410Z,55.50
2019-03-03T13:20:00.344Z,54.90
2019-03-03T13:24:28.426Z,52.97
2019-03-03T13:28:47.836Z,56.40
2019-03-03T13:33:18.854Z,56.77
2019-03-03T13:37:50.418Z,66.97
2019-03-03T13:42:21.820Z,65.13
2019-03-03T13:46:34.452Z,48.67
2019-03-03T13:50:47.440Z,61.10
2019-03-03T13:55:00.342Z,61.73
2019-03-03T13:59:12.787Z,49.33
2019-03-03T14:03:25.296Z,51.77
2019-03-03T14:07:38.828Z,44.97
2019-03-03T14:11:51.151Z,57.50
2019-03-03T14:16:03.563Z,43.90
2019-03-03T14:20:18.785Z,47.80
2019-03-03T14:24:31.479Z,65.03
2019-03-03T14:28:43.952Z,51.80
2019-03-03T14:32:56.200Z,55.23
2019-03-03T14:37:09.092Z,55.17
2019-03-03T14:41:21.547Z,46.00
2019-03-03T14:45:33.848Z,55.53
2019-03-03T14:49:47.406Z,47.63
2019-03-03T14:53:59.734Z,52.57
2019-03-03T14:58:12.191Z,45.13
2019-03-03T15:02:24.431Z,53.30
2019-03-03T15:06:37.229Z,57.87
2019-03-03T15:10:49.793Z,59.70
2019-03-03T15:15:02.407Z,47.50
2019-03-03T15:19:15.463Z,45.57
2019-03-03T15:23:27.960Z,45.23
2019-03-03T15:27:41.501Z,43.20
2019-03-03T15:31:53.971Z,49.57
2019-03-03T15:36:06.795Z,50.30
2019-03-03T15:40:21.337Z,52.73
2019-03-03T15:44:34.196Z,47.20
2019-03-03T15:48:46.651Z,48.13
2019-03-03T15:52:59.063Z,52.03
2019-03-03T15:57:12.608Z,52.80
2019-03-03T16:01:25.124Z,46.20
2019-03-03T16:05:37.531Z,40.83
2019-03-03T16:09:50.350Z,52.53
2019-03-03T16:14:02.783Z,61.30
2019-03-03T16:18:15.897Z,57.60
2019-03-03T16:22:28.597Z,60.93
2019-03-03T16:26:41.256Z,45.43
2019-03-03T16:30:53.780Z,47.03
2019-03-03T16:35:06.853Z,41.77
2019-03-03T16:39:19.629Z,38.80
2019-03-03T16:43:31.952Z,46.70
2019-03-03T16:47:45.680Z,45.07
2019-03-03T16:51:58.000Z,43.10
2019-03-03T16:56:10.304Z,40.97
2019-03-03T17:00:23.504Z,39.03
2019-03-03T17:04:35.922Z,35.07
2019-03-03T17:08:48.748Z,47.27
2019-03-03T17:13:01.299Z,50.73
2019-03-03T17:17:13.829Z,52.20
2019-03-03T17:21:26.294Z,58.63
2019-03-03T17:25:38.551Z,51.50
2019-03-03T17:29:51.444Z,46.07
2019-03-03T17:34:12.680Z,42.50
2019-03-03T17:38:18.121Z,45.63
2019-03-03T17:42:30.571Z,42.23
2019-03-03T17:46:43.201Z,45.93
2019-03-03T17:50:55.595Z,39.37
2019-03-03T17:55:08.595Z,44.00
2019-03-03T17:59:20.939Z,43.20
2019-03-03T18:03:33.262Z,46.53
2019-03-03T18:07:45.805Z,38.40
2019-03-03T18:11:58.673Z,40.53
2019-03-03T18:16:11.248Z,50.33
2019-03-03T18:20:24.179Z,49.53
2019-03-03T18:24:36.668Z,53.10
2019-03-03T18:28:49.086Z,48.33
2019-03-03T18:33:02.130Z,51.23
2019-03-03T18:37:14.896Z,48.53
2019-03-03T18:41:27.723Z,52.57
2019-03-03T18:45:45.488Z,52.40
2019-03-03T18:49:58.331Z,48.10
2019-03-03T18:54:10.755Z,49.60
2019-03-03T18:58:23.632Z,43.50
2019-03-03T19:02:36.113Z,48.43
2019-03-03T19:06:48.520Z,46.60
2019-03-03T19:11:00.992Z,39.27
2019-03-03T19:15:15.188Z,39.77
2019-03-03T19:19:27.705Z,49.27
2019-03-03T19:23:40.125Z,42.83
2019-03-03T19:27:53.340Z,48.97
2019-03-03T19:32:05.672Z,42.33
2019-03-03T19:36:18.700Z,44.03
2019-03-03T19:40:31.274Z,42.97
2019-03-03T19:44:43.524Z,51.93
2019-03-03T19:48:56.316Z,43.10
2019-03-03T19:53:08.863Z,39.03
2019-03-03T19:57:22.404Z,42.47
2019-03-03T20:01:34.729Z,45.87
2019-03-03T20:05:47.611Z,41.30
2019-03-03T20:10:00.589Z,45.10
2019-03-03T20:14:13.168Z,40.67
2019-03-03T20:18:25.535Z,42.00
2019-03-03T20:22:37.989Z,38.00
2019-03-03T20:26:51.354Z,38.63
2019-03-03T20:31:04.267Z,44.33
2019-03-03T20:35:17.219Z,37.63
2019-03-03T20:39:30.212Z,38.63
2019-03-03T20:43:42.619Z,46.20
2019-03-03T20:47:54.867Z,40.23
2019-03-03T20:52:07.983Z,48.50
2019-03-03T20:56:20.429Z,40.10
2019-03-03T21:00:33.617Z,40.77
2019-03-03T21:04:46.042Z,44.13
2019-03-03T21:08:58.962Z,47.80
2019-03-03T21:13:11.861Z,50.10
2019-03-03T21:17:25.105Z,37.40
2019-03-03T21:21:37.596Z,44.73
2019-03-03T21:25:49.996Z,37.87
2019-03-03T21:30:02.780Z,36.23
2019-03-03T21:34:15.240Z,37.27
2019-03-03T21:38:27.648Z,35.00
2019-03-03T21:42:40.894Z,37.00
2019-03-03T21:46:53.258Z,21.33
2019-03-03T21:51:06.089Z,24.03
2019-03-03T21:55:18.543Z,16.57
2019-03-03T21:59:31.431Z,19.40
2019-03-03T22:03:43.891Z,18.00
2019-03-03T22:07:56.411Z,21.40
2019-03-03T22:12:09.951Z,25.10
2019-03-03T22:16:22.328Z,25.07
2019-03-03T22:20:35.020Z,18.40
2019-03-03T22:24:47.667Z,25.80
2019-03-03T22:28:59.952Z,29.40
2019-03-03T22:33:12.218Z,25.23
2019-03-03T22:37:25.737Z,22.93
2019-03-03T22:41:39.074Z,21.80
2019-03-03T22:45:51.432Z,23.50
2019-03-03T22:50:04.485Z,23.17
2019-03-03T22:54:17.275Z,19.53
2019-03-03T22:58:29.696Z,21.63
2019-03-03T23:02:42.051Z,22.67
2019-03-03T23:07:00.223Z,31.13
2019-03-03T23:11:47.655Z,20.83
2019-03-03T23:16:24.028Z,26.83
2019-03-03T23:21:13.212Z,23.83
2019-03-03T23:26:02.968Z,29.27
2019-03-03T23:30:15.361Z,20.03
2019-03-03T23:34:27.265Z,20.63
2019-03-03T23:38:41.018Z,20.23
2019-03-03T23:42:53.416Z,30.67
2019-03-03T23:47:06.198Z,31.17
2019-03-03T23:51:18.951Z,35.23
2019-03-03T23:55:32.760Z,29.17
2019-03-03T23:59:45.331Z,31.77
